Logan - 24 Hour Table
Date & TimeSolar
Radiation
(W/m²)
Wind
Speed
(mph)
Wind
Direction
(degrees)
Air
Temperature
(°F)
Relative
Humidity
(%)
Precipitation
(inches)
Barometric
Pressure
(inHg)
2018/02/17 12:00 606 10.1 187 45.3 33 0.00 30.09
2018/02/17 11:00 486 7.5 192 43.7 37 0.00 30.11
2018/02/17 10:00 302 3.3 186 40.6 42 0.00 30.13
2018/02/17 09:00 191 0.5 21 32.7 54 0.00 30.14
2018/02/17 08:00 15 1.6 17 28.0 75 0.00 30.15
2018/02/17 07:00 0 1.4 72 30.4 67 0.00 30.14
2018/02/17 06:00 0 1.2 154 31.6 60 0.00 30.14
2018/02/17 05:00 0 1.0 125 31.2 57 0.00 30.15
2018/02/17 04:00 0 1.1 10 31.5 66 0.00 30.14
2018/02/17 03:00 0 4.0 336 32.4 62 0.00 30.14
2018/02/17 02:00 0 4.6 347 34.0 55 0.00 30.14
2018/02/17 01:00 0 0.7 57 34.6 47 0.00 30.14
2018/02/17 00:00 0 1.4 54 34.1 40 0.00 30.13
2018/02/16 23:00 0 1.8 10 32.8 46 0.00 30.11
2018/02/16 22:00 0 0.9 211 33.5 42 0.00 30.09
2018/02/16 21:00 0 1.7 168 34.9 43 0.00 30.09
2018/02/16 20:00 0 0.6 184 34.1 38 0.00 30.08
2018/02/16 19:00 0 4.1 184 34.8 36 0.00 30.09
2018/02/16 18:00 30 2.3 152 34.7 37 0.00 30.09
2018/02/16 17:00 144 4.6 168 34.3 43 0.00 30.11
2018/02/16 16:00 115 2.8 228 34.3 46 0.00 30.13
2018/02/16 15:00 106 3.6 231 35.4 37 0.00 30.14
2018/02/16 14:00 212 3.2 206 36.0 36 0.00 30.15
2018/02/16 13:00 498 3.1 276 37.1 37 0.00 30.16